This is the latest recevied weather packets stored in our database for station/object DK2OO-6. If no packets are shown the sender has not sent any weather packets the latest 10 day(s).
| Time | Temp. | Humidity | Pressure | Rain* | Wind** | Luminosity | Snow |
|---|---|---|---|---|---|---|---|
| 1788413971 | 11.67° C | 82% | 1016.3 hPa | 0 mm | - | - | - |
| 1788411556 | 11.67° C | 82% | 1016 hPa | 0 mm | - | - | - |
| 1788410952 | 11.67° C | 82% | 1016.1 hPa | 0 mm | - | - | - |
| 1788410348 | 11.67° C | 82% | 1016 hPa | 0 mm | - | - | - |
| 1788407330 | 11.11° C | 81% | 1016.1 hPa | 0 mm | - | - | - |
| 1788406121 | 11.11° C | 81% | 1016 hPa | 0 mm | - | - | - |
| 1788405519 | 11.67° C | 81% | 1016 hPa | 0 mm | - | - | - |
| 1788404309 | 11.67° C | 80% | 1016.1 hPa | 0 mm | - | - | - |
| 1788403710 | 11.67° C | 80% | 1016 hPa | 0 mm | - | - | - |
| 1788403103 | 11.67° C | 80% | 1016 hPa | 0 mm | - | - | - |
| 1788401886 | 12.22° C | 80% | 1016.1 hPa | 0 mm | - | - | - |
| 1788401280 | 12.22° C | 80% | 1015.9 hPa | 0 mm | - | - | - |
| 1788400672 | 12.22° C | 80% | 1016 hPa | 0 mm | - | - | - |
| 1788381351 | 16.67° C | 68% | 1015.4 hPa | 0 mm | - | - | - |
| 1788377721 | 17.78° C | 64% | 1015.3 hPa | 0 mm | - | - | - |
| 1788372300 | 20.56° C | 55% | 1014.3 hPa | 0 mm | - | - | - |
| 1788370490 | 21.11° C | 53% | 1014.1 hPa | 0 mm | - | - | - |
| 1788365662 | 23.33° C | 46% | 1013.7 hPa | 0 mm | - | - | - |
| 1788364456 | 23.89° C | 46% | 1013.8 hPa | 0 mm | - | - | - |
| 1788363250 | 23.89° C | 47% | 1013.5 hPa | 0 mm | - | - | - |
| 1788360833 | 24.44° C | 48% | 1013.8 hPa | 0 mm | - | - | - |
| 1788359622 | 25° C | 50% | 1013.8 hPa | 0 mm | - | - | - |
| 1788356003 | 24.44° C | 51% | 1014 hPa | 0 mm | - | - | - |
| 1788354190 | 24.44° C | 51% | 1014.2 hPa | 0 mm | - | - | - |
| 1788352378 | 24.44° C | 51% | 1014.5 hPa | 0 mm | - | - | - |
* Rain latest hour (hover to see other rain measurements)
** Current wind speed in m/s (hover to see current wind gust speed)